Time;durP1;ratioP1;P1;durP2;ratioP2;P2;SDS_P1;SDS_P2;PMS_P1;PMS_P2;Temp;Humidity;BMP_temperature;BMP_pressure;BME280_temperature;BME280_humidity;BME280_pressure;Samples;Min_cycle;Max_cycle;Signal;HPM_P1;HPM_P2
2023/07/26 00:00:05;;;;;;;21.80;17.20;;;;;;;25.93;100.00;99858.56;2519994;23;20186;-69
2023/07/26 00:01:06;;;;;;;21.60;16.30;;;;;;;25.54;100.00;99796.34;2507699;23;20243;-69
2023/07/26 00:02:06;;;;;;;19.13;16.13;;;;;;;25.91;100.00;99841.34;2520006;23;20167;-69
2023/07/26 00:03:07;;;;;;;20.40;16.83;;;;;;;25.89;100.00;99835.41;2520561;23;20509;-69
2023/07/26 00:04:08;;;;;;;20.30;16.63;;;;;;;25.50;100.00;99787.44;2532917;23;20155;-69
2023/07/26 00:05:08;;;;;;;21.60;17.00;;;;;;;25.90;100.00;99839.00;2533398;23;20221;-69
2023/07/26 00:06:09;;;;;;;22.13;17.47;;;;;;;25.89;100.00;99846.75;2532819;23;20150;-69
2023/07/26 00:07:09;;;;;;;22.30;17.47;;;;;;;25.90;100.00;99836.91;2533099;23;20185;-69
2023/07/26 00:08:09;;;;;;;17.83;15.97;;;;;;;25.64;100.00;99800.22;2532573;23;20147;-69
2023/07/26 00:09:10;;;;;;;23.00;17.13;;;;;;;25.91;100.00;99834.84;2532869;23;20151;-69
2023/07/26 00:10:10;;;;;;;20.30;17.37;;;;;;;25.88;100.00;99828.22;2533028;23;20174;-69
2023/07/26 00:11:10;;;;;;;19.60;17.50;;;;;;;25.80;100.00;99832.31;2532572;23;20147;-69
2023/07/26 00:12:11;;;;;;;22.20;17.73;;;;;;;25.68;100.00;99828.22;2533079;23;20228;-69
2023/07/26 00:13:12;;;;;;;20.87;17.67;;;;;;;25.80;100.00;99840.81;2532606;23;20155;-69
2023/07/26 00:14:13;;;;;;;24.57;17.27;;;;;;;25.79;100.00;99834.38;2532990;23;20169;-69
2023/07/26 00:15:14;;;;;;;21.97;16.43;;;;;;;25.70;100.00;99832.03;2520197;23;20625;-69
2023/07/26 00:16:14;;;;;;;21.53;16.80;;;;;;;25.73;100.00;99830.94;2519998;23;20562;-69
2023/07/26 00:17:15;;;;;;;22.53;16.70;;;;;;;25.66;100.00;99828.03;2533092;23;20150;-69
2023/07/26 00:18:15;;;;;;;22.50;17.00;;;;;;;25.73;100.00;99844.34;2532551;23;20218;-69
2023/07/26 00:19:19;;;;;;;20.70;15.73;;;;;;;25.67;100.00;99841.66;2533065;23;20242;-69
2023/07/26 00:20:19;;;;;;;17.17;15.33;;;;;;;25.64;100.00;99828.59;2533069;23;20151;-69
2023/07/26 00:21:20;;;;;;;20.80;17.07;;;;;;;25.26;100.00;99792.69;2532244;23;20615;-69
2023/07/26 00:22:20;;;;;;;20.83;16.93;;;;;;;25.62;100.00;99845.41;2532951;23;20619;-69
2023/07/26 00:23:20;;;;;;;25.07;18.10;;;;;;;25.15;100.00;99775.94;2533205;23;20554;-69
2023/07/26 00:24:21;;;;;;;25.20;18.73;;;;;;;25.54;100.00;99843.81;2533003;23;20150;-69
2023/07/26 00:25:21;;;;;;;27.57;18.53;;;;;;;25.42;100.00;99825.53;2533145;23;20225;-69
2023/07/26 00:26:22;;;;;;;23.70;18.50;;;;;;;25.39;100.00;99835.91;2532608;23;20524;-69
2023/07/26 00:27:22;;;;;;;21.33;17.90;;;;;;;25.38;100.00;99845.75;2532453;23;20161;-69
2023/07/26 00:28:23;;;;;;;21.40;17.00;;;;;;;25.42;100.00;99845.41;2532509;23;20554;-69
2023/07/26 00:29:23;;;;;;;22.90;16.77;;;;;;;25.41;100.00;99841.03;2532909;23;20237;-69
2023/07/26 00:30:24;;;;;;;21.77;18.20;;;;;;;25.39;100.00;99850.09;2519425;23;20552;-69
2023/07/26 00:31:24;;;;;;;19.10;16.93;;;;;;;25.33;100.00;99840.22;2519338;23;20479;-69
2023/07/26 00:32:24;;;;;;;21.93;17.53;;;;;;;25.18;100.00;99831.53;2532877;23;20157;-69
2023/07/26 00:33:25;;;;;;;25.73;18.63;;;;;;;25.25;100.00;99845.03;2533160;23;20185;-69
2023/07/26 00:34:25;;;;;;;20.33;17.70;;;;;;;25.28;100.00;99838.28;2532953;23;20619;-69
2023/07/26 00:35:29;;;;;;;23.17;19.07;;;;;;;25.25;100.00;99845.81;2533274;23;20578;-69
2023/07/26 00:36:29;;;;;;;22.10;17.67;;;;;;;24.87;100.00;99778.69;2532861;23;20154;-69
2023/07/26 00:37:30;;;;;;;24.33;17.87;;;;;;;25.20;100.00;99843.09;2533150;23;20230;-69
2023/07/26 00:38:30;;;;;;;25.57;18.10;;;;;;;25.18;100.00;99840.78;2532723;23;20150;-69
2023/07/26 00:39:31;;;;;;;24.97;18.23;;;;;;;25.22;100.00;99844.06;2533049;23;20206;-69
2023/07/26 00:40:31;;;;;;;24.40;17.53;;;;;;;25.24;100.00;99847.09;2532261;23;20501;-69
2023/07/26 00:41:32;;;;;;;22.37;16.23;;;;;;;25.26;100.00;99853.00;2532277;23;20150;-69
2023/07/26 00:42:32;;;;;;;23.93;17.33;;;;;;;25.27;100.00;99839.56;2532833;23;20632;-69
2023/07/26 00:43:33;;;;;;;26.17;16.17;;;;;;;25.25;100.00;99842.19;2533137;23;20585;-69
2023/07/26 00:44:34;;;;;;;25.37;16.87;;;;;;;24.78;100.00;99765.72;2532866;23;20155;-69
2023/07/26 00:45:37;;;;;;;22.07;17.17;;;;;;;25.25;100.00;99836.53;2533292;23;20150;-69
2023/07/26 00:46:38;;;;;;;23.47;16.80;;;;;;;25.25;100.00;99839.34;2532507;23;20213;-69
2023/07/26 00:47:39;;;;;;;26.20;16.77;;;;;;;25.25;100.00;99840.16;2532608;23;20182;-69
2023/07/26 00:48:39;;;;;;;26.30;17.07;;;;;;;25.29;100.00;99840.56;2532661;23;20151;-69
2023/07/26 00:49:40;;;;;;;19.80;16.93;;;;;;;25.26;100.00;99835.22;2533007;23;20174;-69
2023/07/26 00:50:42;;;;;;;27.97;18.17;;;;;;;25.14;100.00;99829.06;2531836;23;20186;-69
2023/07/26 00:51:43;;;;;;;21.10;18.90;;;;;;;25.26;100.00;99841.66;2531300;23;20166;-69
2023/07/26 00:52:43;;;;;;;22.20;18.20;;;;;;;24.57;100.00;99741.50;2532882;23;20260;-69
2023/07/26 00:53:45;;;;;;;22.47;17.50;;;;;;;25.27;100.00;99848.84;2532936;23;20624;-69
2023/07/26 00:54:45;;;;;;;21.53;17.90;;;;;;;25.25;100.00;99842.19;2533080;23;20150;-69
2023/07/26 00:55:46;;;;;;;20.17;16.53;;;;;;;25.31;100.00;99851.34;2532325;23;20150;-69
2023/07/26 00:56:46;;;;;;;22.07;17.90;;;;;;;25.33;100.00;99848.75;2532663;23;20229;-69
2023/07/26 00:57:47;;;;;;;20.73;17.67;;;;;;;25.31;100.00;99848.50;2532449;23;20151;-69
2023/07/26 00:58:48;;;;;;;23.23;18.27;;;;;;;25.00;100.00;99798.47;2532790;23;20519;-69
2023/07/26 00:59:48;;;;;;;27.43;19.97;;;;;;;24.83;100.00;99770.50;2532886;23;20158;-69
2023/07/26 01:00:50;;;;;;;26.37;21.30;;;;;;;25.34;100.00;99838.91;2532248;23;20154;-69
2023/07/26 01:01:50;;;;;;;29.33;20.20;;;;;;;25.29;100.00;99839.81;2532570;23;20593;-69
2023/07/26 01:02:51;;;;;;;26.27;19.30;;;;;;;25.36;100.00;99844.78;2533113;23;20489;-69
2023/07/26 01:03:51;;;;;;;28.97;19.37;;;;;;;24.96;100.00;99792.38;2532704;23;20558;-69
2023/07/26 01:04:52;;;;;;;28.77;18.47;;;;;;;25.31;100.00;99849.28;2533020;23;20162;-69
2023/07/26 01:05:58;;;;;;;27.67;21.93;;;;;;;24.56;100.00;99742.81;2532710;23;20184;-69
2023/07/26 01:07:47;;;;;;;33.97;19.57;;;;;;;25.13;100.00;99838.84;2532793;23;20139;-69
2023/07/26 01:09:00;;;;;;;25.90;18.03;;;;;;;25.12;100.00;99845.84;2493130;23;20170;-69
2023/07/26 01:10:20;;;;;;;21.83;18.20;;;;;;;25.04;100.00;99838.56;2522224;23;20139;-69
2023/07/26 01:11:37;;;;;;;26.27;19.93;;;;;;;24.66;100.00;99792.78;2532104;23;20146;-69
2023/07/26 01:12:45;;;;;;;22.93;19.17;;;;;;;24.69;100.00;99803.03;2532729;23;20138;-69
2023/07/26 01:13:58;;;;;;;23.67;18.33;;;;;;;25.00;100.00;99844.59;2532963;23;20577;-69
2023/07/26 01:15:06;;;;;;;20.87;18.77;;;;;;;25.04;100.00;99842.19;2532990;23;20143;-69
2023/07/26 01:16:06;;;;;;;22.00;18.60;;;;;;;25.07;100.00;99832.56;2532767;23;20602;-69
2023/07/26 01:17:07;;;;;;;23.87;19.07;;;;;;;25.08;100.00;99831.22;2532755;23;20496;-69
2023/07/26 01:18:09;;;;;;;20.63;17.80;;;;;;;25.11;100.00;99838.66;2532263;23;20162;-69
2023/07/26 01:19:09;;;;;;;25.77;18.57;;;;;;;24.82;100.00;99802.25;2532890;23;20595;-69
2023/07/26 01:20:10;;;;;;;21.07;18.20;;;;;;;25.14;100.00;99839.63;2532707;23;20157;-69
2023/07/26 01:21:10;;;;;;;23.37;19.07;;;;;;;25.14;100.00;99834.72;2532051;23;20224;-69
2023/07/26 01:22:11;;;;;;;26.70;20.97;;;;;;;25.15;100.00;99835.47;2532769;23;20154;-69
2023/07/26 01:23:11;;;;;;;21.73;19.30;;;;;;;25.07;100.00;99828.97;2533233;23;20244;-69
2023/07/26 01:24:12;;;;;;;24.10;19.80;;;;;;;24.99;100.00;99828.88;2518986;23;20527;-69
2023/07/26 01:25:12;;;;;;;28.53;18.83;;;;;;;25.00;100.00;99833.25;2520201;23;20159;-69
2023/07/26 01:26:12;;;;;;;23.37;19.03;;;;;;;25.02;100.00;99836.28;2532593;23;20193;-69
2023/07/26 01:27:13;;;;;;;22.70;19.43;;;;;;;25.06;100.00;99828.19;2532748;23;20178;-69
2023/07/26 01:28:13;;;;;;;22.90;18.77;;;;;;;25.10;100.00;99837.13;2532323;23;20158;-69
2023/07/26 01:29:14;;;;;;;24.43;19.07;;;;;;;24.62;100.00;99783.88;2533064;23;20147;-69
2023/07/26 01:30:14;;;;;;;24.40;18.90;;;;;;;25.04;100.00;99841.41;2532689;23;20158;-69
2023/07/26 01:31:16;;;;;;;24.93;16.57;;;;;;;25.05;100.00;99840.09;2531924;23;20189;-69
2023/07/26 01:32:20;;;;;;;25.23;17.10;;;;;;;24.56;100.00;99759.81;2532641;23;20213;-69
2023/07/26 01:33:21;;;;;;;22.77;19.53;;;;;;;25.00;100.00;99836.06;2532940;23;20262;-69
2023/07/26 01:34:40;;;;;;;18.83;16.70;;;;;;;25.01;100.00;99831.94;2532638;23;20150;-69
2023/07/26 01:35:40;;;;;;;22.23;17.87;;;;;;;24.97;100.00;99827.91;2532938;23;20146;-69
2023/07/26 01:36:41;;;;;;;24.03;18.63;;;;;;;24.83;100.00;99832.09;2532715;23;20174;-69
2023/07/26 01:37:42;;;;;;;21.27;18.37;;;;;;;24.92;100.00;99842.97;2532233;23;20185;-69
2023/07/26 01:38:44;;;;;;;24.70;20.03;;;;;;;24.91;100.00;99852.78;2532028;23;20166;-69
2023/07/26 01:39:44;;;;;;;24.67;18.43;;;;;;;24.87;100.00;99841.03;2519289;23;20646;-69
2023/07/26 01:40:45;;;;;;;26.20;21.00;;;;;;;24.83;100.00;99829.25;2519394;23;20584;-69
2023/07/26 01:41:47;;;;;;;23.70;19.00;;;;;;;24.31;100.00;99776.28;2531883;23;20174;-69
2023/07/26 01:42:48;;;;;;;23.23;17.73;;;;;;;24.86;100.00;99853.66;2532982;23;20178;-69
2023/07/26 01:43:48;;;;;;;22.43;18.03;;;;;;;24.84;100.00;99842.88;2532835;23;20262;-69
2023/07/26 01:44:49;;;;;;;25.23;20.83;;;;;;;24.06;100.00;99734.63;2532864;23;20552;-69
2023/07/26 01:45:49;;;;;;;25.70;22.70;;;;;;;24.71;100.00;99836.50;2532723;23;20249;-69
2023/07/26 01:46:52;;;;;;;24.13;21.57;;;;;;;24.66;100.00;99840.22;2532507;23;20155;-69
2023/07/26 01:47:53;;;;;;;23.33;19.20;;;;;;;24.77;100.00;99852.03;2532219;23;20162;-69
2023/07/26 01:48:54;;;;;;;24.73;19.20;;;;;;;24.82;100.00;99841.91;2519745;23;20234;-69
2023/07/26 01:49:54;;;;;;;20.93;18.63;;;;;;;24.81;100.00;99843.19;2519975;23;20155;-69
2023/07/26 01:50:55;;;;;;;20.53;18.33;;;;;;;24.76;100.00;99844.84;2532310;23;20178;-69
2023/07/26 01:51:55;;;;;;;21.07;18.23;;;;;;;24.75;100.00;99840.50;2532429;23;20547;-69
2023/07/26 01:52:56;;;;;;;22.17;18.60;;;;;;;24.80;100.00;99850.19;2532204;23;20198;-69
2023/07/26 01:53:56;;;;;;;23.23;18.40;;;;;;;24.85;100.00;99852.91;2519474;23;20151;-69
2023/07/26 01:54:56;;;;;;;22.23;19.37;;;;;;;24.85;100.00;99844.41;2519967;23;20210;-69
2023/07/26 01:55:57;;;;;;;23.73;19.50;;;;;;;24.76;100.00;99844.09;2532501;23;20205;-69
2023/07/26 01:56:57;;;;;;;19.73;17.60;;;;;;;24.65;100.00;99847.94;2533020;23;20147;-69
2023/07/26 01:57:58;;;;;;;19.90;17.77;;;;;;;24.65;100.00;99852.81;2532025;23;20643;-69
2023/07/26 01:58:58;;;;;;;30.60;18.10;;;;;;;24.52;100.00;99847.16;2532770;23;20525;-69
2023/07/26 01:59:59;;;;;;;24.20;18.30;;;;;;;24.57;100.00;99849.13;2532524;23;20561;-69
2023/07/26 02:01:02;;;;;;;23.23;18.13;;;;;;;24.61;100.00;99849.59;2531821;23;20155;-69
2023/07/26 02:02:03;;;;;;;19.80;17.70;;;;;;;24.66;100.00;99860.03;2532554;23;20150;-69
2023/07/26 02:03:04;;;;;;;21.20;17.23;;;;;;;23.95;100.00;99755.41;2532717;23;20209;-69
2023/07/26 02:04:04;;;;;;;23.23;17.77;;;;;;;24.60;100.00;99856.53;2532425;23;20146;-69
2023/07/26 02:05:05;;;;;;;22.73;19.93;;;;;;;24.54;100.00;99850.97;2532902;23;20170;-69
2023/07/26 02:06:05;;;;;;;23.87;20.57;;;;;;;24.59;100.00;99849.34;2532711;23;20207;-69
2023/07/26 02:07:06;;;;;;;25.07;20.63;;;;;;;24.61;100.00;99856.00;2531806;23;20166;-69
2023/07/26 02:08:06;;;;;;;29.17;22.57;;;;;;;24.62;100.00;99859.59;2519053;23;20262;-69
2023/07/26 02:09:08;;;;;;;23.37;20.53;;;;;;;24.61;100.00;99858.84;2519876;23;20154;-69
2023/07/26 02:10:08;;;;;;;24.80;21.60;;;;;;;24.18;100.00;99798.19;2519525;23;20630;-69
2023/07/26 02:11:09;;;;;;;26.37;19.37;;;;;;;24.25;100.00;99803.94;2518866;23;20602;-69
2023/07/26 02:12:09;;;;;;;24.70;19.40;;;;;;;24.25;100.00;99803.94;2532503;23;20161;-69
2023/07/26 02:13:10;;;;;;;25.00;18.57;;;;;;;24.30;100.00;99814.41;2532860;23;20153;-69
2023/07/26 02:14:10;;;;;;;26.33;18.10;;;;;;;24.64;100.00;99865.47;2532740;23;20218;-69
2023/07/26 02:15:11;;;;;;;21.07;17.50;;;;;;;24.65;100.00;99859.28;2532724;23;20248;-69
2023/07/26 02:16:11;;;;;;;26.70;18.27;;;;;;;24.64;100.00;99852.09;2532607;23;20158;-69
2023/07/26 02:17:11;;;;;;;21.97;17.47;;;;;;;24.70;100.00;99860.44;2532676;23;20182;-69
2023/07/26 02:18:12;;;;;;;23.10;17.17;;;;;;;24.71;100.00;99851.41;2531856;23;20173;-69
2023/07/26 02:19:13;;;;;;;22.33;17.73;;;;;;;24.39;100.00;99804.69;2532586;23;20189;-69
2023/07/26 02:20:13;;;;;;;21.97;17.43;;;;;;;24.73;100.00;99851.63;2532680;23;20186;-69
2023/07/26 02:21:14;;;;;;;24.40;17.50;;;;;;;24.74;100.00;99864.50;2531452;23;20151;-69
2023/07/26 02:22:14;;;;;;;21.33;17.40;;;;;;;24.63;100.00;99841.28;2532488;23;20181;-69
2023/07/26 02:23:15;;;;;;;21.43;17.10;;;;;;;24.78;100.00;99861.31;2519845;23;20159;-69
2023/07/26 02:24:15;;;;;;;22.87;16.97;;;;;;;24.75;100.00;99859.56;2519588;23;20577;-69
2023/07/26 02:25:16;;;;;;;25.03;20.47;;;;;;;24.74;100.00;99856.00;2532867;23;20233;-69
2023/07/26 02:26:16;;;;;;;25.80;18.43;;;;;;;24.77;100.00;99856.97;2519415;23;20166;-69
2023/07/26 02:27:17;;;;;;;22.27;18.67;;;;;;;24.74;100.00;99867.31;2519767;23;20214;-69
2023/07/26 02:28:17;;;;;;;20.97;18.43;;;;;;;24.75;100.00;99868.06;2532049;23;20150;-69
2023/07/26 02:29:17;;;;;;;25.70;18.30;;;;;;;24.74;100.00;99867.31;2532531;23;20204;-69
2023/07/26 02:30:18;;;;;;;23.03;18.10;;;;;;;24.79;100.00;99860.00;2532517;23;20158;-69
2023/07/26 02:31:18;;;;;;;21.10;18.83;;;;;;;24.55;100.00;99824.16;2531844;23;20161;-69
2023/07/26 02:32:19;;;;;;;23.27;18.50;;;;;;;24.76;100.00;99856.19;2532264;23;20178;-69
2023/07/26 02:33:19;;;;;;;21.20;18.13;;;;;;;24.76;100.00;99863.91;2532702;23;20154;-69
2023/07/26 02:34:19;;;;;;;23.50;18.10;;;;;;;24.71;100.00;99862.00;2531635;23;20597;-69
2023/07/26 02:35:20;;;;;;;22.63;18.90;;;;;;;24.74;100.00;99860.88;2532606;23;20597;-69
2023/07/26 02:36:20;;;;;;;21.63;18.63;;;;;;;24.65;100.00;99845.09;2531873;23;20611;-69
2023/07/26 02:37:21;;;;;;;26.17;17.73;;;;;;;24.78;100.00;99856.41;2532706;23;20177;-69
2023/07/26 02:38:21;;;;;;;28.40;18.40;;;;;;;24.39;100.00;99816.78;2518942;23;20181;-69
2023/07/26 02:39:21;;;;;;;25.07;18.83;;;;;;;24.61;100.00;99853.16;2519920;23;20178;-69
2023/07/26 02:40:22;;;;;;;20.63;18.07;;;;;;;24.71;100.00;99864.84;2532444;23;20233;-69
2023/07/26 02:41:22;;;;;;;22.13;19.00;;;;;;;24.71;100.00;99854.25;2531767;23;20176;-69
2023/07/26 02:42:23;;;;;;;23.07;18.43;;;;;;;24.74;100.00;99866.53;2532244;23;20157;-69
2023/07/26 02:43:23;;;;;;;23.40;18.90;;;;;;;24.78;100.00;99861.31;2532881;23;20150;-69
2023/07/26 02:44:24;;;;;;;26.97;19.20;;;;;;;24.72;100.00;99852.19;2532380;23;20151;-69
2023/07/26 02:45:24;;;;;;;26.40;19.07;;;;;;;24.70;100.00;99854.78;2532703;23;20161;-69
2023/07/26 02:46:24;;;;;;;23.93;19.10;;;;;;;24.73;100.00;99860.13;2532140;23;20154;-69
2023/07/26 02:47:25;;;;;;;22.03;18.23;;;;;;;24.75;100.00;99868.06;2532750;23;20161;-69
2023/07/26 02:48:25;;;;;;;23.93;17.63;;;;;;;24.72;100.00;99857.84;2532024;23;20157;-69
2023/07/26 02:49:26;;;;;;;22.33;18.47;;;;;;;24.80;100.00;99861.53;2519420;23;20677;-69
2023/07/26 02:50:26;;;;;;;23.60;19.70;;;;;;;24.39;100.00;99805.47;2506088;23;20509;-69
2023/07/26 02:51:27;;;;;;;22.13;19.13;;;;;;;24.84;100.00;99867.63;2519281;23;20460;-69
2023/07/26 02:52:27;;;;;;;23.17;19.10;;;;;;;24.83;100.00;99866.09;2531917;23;20205;-69
2023/07/26 02:53:27;;;;;;;23.50;19.80;;;;;;;24.86;100.00;99865.00;2532558;23;20214;-69
2023/07/26 02:54:28;;;;;;;21.47;19.10;;;;;;;24.77;100.00;99852.03;2532240;23;20624;-69
2023/07/26 02:55:28;;;;;;;23.43;19.17;;;;;;;24.72;100.00;99846.50;2519986;23;20262;-69
2023/07/26 02:56:29;;;;;;;23.27;20.33;;;;;;;24.93;100.00;99858.66;2519642;23;20574;-69
2023/07/26 02:57:29;;;;;;;24.63;18.70;;;;;;;23.91;100.00;99695.56;2532716;23;20602;-69
2023/07/26 02:58:30;;;;;;;23.70;19.07;;;;;;;24.92;100.00;99860.72;2531881;23;20177;-69
2023/07/26 02:59:31;;;;;;;21.20;18.73;;;;;;;24.93;100.00;99859.41;2532584;23;20205;-69
2023/07/26 03:00:31;;;;;;;22.47;18.83;;;;;;;24.67;100.00;99825.47;2531792;23;20154;-69
2023/07/26 03:01:32;;;;;;;21.33;19.13;;;;;;;24.96;100.00;99855.50;2532322;23;20170;-69
2023/07/26 03:02:32;;;;;;;22.80;19.57;;;;;;;24.94;100.00;99860.19;2532133;23;20155;-69
2023/07/26 03:03:32;;;;;;;21.43;19.13;;;;;;;24.95;100.00;99850.38;2532831;23;20154;-69
2023/07/26 03:04:33;;;;;;;21.73;19.43;;;;;;;24.95;100.00;99850.38;2532001;23;20236;-69
2023/07/26 03:05:36;;;;;;;23.83;19.70;;;;;;;24.98;100.00;99855.69;2532623;23;20151;-69
2023/07/26 03:06:36;;;;;;;26.07;19.97;;;;;;;24.99;100.00;99850.78;2532224;23;20174;-69
2023/07/26 03:07:37;;;;;;;22.40;19.23;;;;;;;24.99;100.00;99845.91;2532088;23;20162;-69
2023/07/26 03:08:37;;;;;;;25.57;18.73;;;;;;;25.03;100.00;99856.91;2532393;23;20154;-69
2023/07/26 03:09:38;;;;;;;23.67;19.27;;;;;;;25.06;100.00;99856.53;2532666;23;20154;-69
2023/07/26 03:10:38;;;;;;;25.93;19.13;;;;;;;25.04;100.00;99853.50;2531935;23;20178;-69
2023/07/26 03:11:38;;;;;;;24.97;18.53;;;;;;;25.05;100.00;99857.09;2532277;23;20154;-69
2023/07/26 03:12:39;;;;;;;23.50;19.23;;;;;;;25.06;100.00;99861.44;2532287;23;20150;-69
2023/07/26 03:13:39;;;;;;;24.33;19.70;;;;;;;25.05;100.00;99855.03;2532803;23;20185;-69
2023/07/26 03:14:40;;;;;;;24.07;18.90;;;;;;;24.99;100.00;99845.13;2532403;23;20162;-69
2023/07/26 03:15:40;;;;;;;25.10;19.90;;;;;;;25.10;100.00;99864.72;2532612;23;20238;-69
2023/07/26 03:16:41;;;;;;;25.80;18.93;;;;;;;25.07;100.00;99855.22;2519639;23;20155;-69
2023/07/26 03:17:41;;;;;;;26.03;18.50;;;;;;;25.07;100.00;99860.16;2519184;23;20629;-69
2023/07/26 03:18:42;;;;;;;23.80;19.33;;;;;;;25.03;100.00;99851.97;2518745;23;20159;-69
2023/07/26 03:19:42;;;;;;;22.43;19.07;;;;;;;25.05;100.00;99852.19;2532400;23;20276;-69
2023/07/26 03:20:46;;;;;;;23.30;19.60;;;;;;;25.09;100.00;99858.28;2532203;23;20601;-69
2023/07/26 03:21:46;;;;;;;26.03;18.70;;;;;;;25.11;100.00;99852.06;2532074;23;20253;-69
2023/07/26 03:22:47;;;;;;;23.60;19.20;;;;;;;25.12;100.00;99843.00;2532238;23;20158;-69
2023/07/26 03:23:47;;;;;;;22.80;20.50;;;;;;;25.16;100.00;99856.81;2532760;23;20182;-69
2023/07/26 03:24:48;;;;;;;27.30;20.57;;;;;;;25.18;100.00;99854.97;2532437;23;20604;-69
2023/07/26 03:25:48;;;;;;;21.83;19.43;;;;;;;25.14;100.00;99854.56;2532557;23;20150;-69
2023/07/26 03:26:48;;;;;;;23.60;21.03;;;;;;;25.14;100.00;99853.78;2519333;23;20221;-69
2023/07/26 03:27:49;;;;;;;28.03;24.47;;;;;;;25.17;100.00;99856.28;2519105;23;20418;-69
2023/07/26 03:28:49;;;;;;;34.37;26.60;;;;;;;25.17;100.00;99849.88;2532438;23;20162;-69
2023/07/26 03:29:50;;;;;;;28.83;24.40;;;;;;;25.19;100.00;99856.47;2532392;23;20237;-69
2023/07/26 03:30:50;;;;;;;33.03;26.30;;;;;;;25.14;100.00;99856.63;2532110;23;20205;-69
2023/07/26 03:31:50;;;;;;;32.47;25.70;;;;;;;25.13;100.00;99835.28;2531964;23;20155;-69
2023/07/26 03:32:51;;;;;;;29.00;25.33;;;;;;;24.96;100.00;99812.97;2531897;23;20474;-69
2023/07/26 03:33:51;;;;;;;28.50;24.97;;;;;;;25.27;100.00;99850.91;2532181;23;20389;-69
2023/07/26 03:34:52;;;;;;;29.43;25.47;;;;;;;25.22;100.00;99854.63;2532567;23;20178;-69
2023/07/26 03:35:52;;;;;;;32.50;24.83;;;;;;;25.22;100.00;99857.47;2532332;23;20178;-69
2023/07/26 03:36:53;;;;;;;30.57;24.73;;;;;;;25.17;100.00;99861.97;2532734;23;20165;-69
2023/07/26 03:37:53;;;;;;;29.57;24.60;;;;;;;25.22;100.00;99861.06;2531918;23;20150;-69
2023/07/26 03:38:54;;;;;;;33.37;25.70;;;;;;;25.17;100.00;99853.44;2532135;23;20519;-69
2023/07/26 03:39:54;;;;;;;28.33;24.10;;;;;;;25.22;100.00;99869.56;2532330;23;20182;-69
2023/07/26 03:40:55;;;;;;;28.67;24.07;;;;;;;24.75;100.00;99802.91;2532128;23;20158;-69
2023/07/26 03:41:56;;;;;;;28.20;24.83;;;;;;;24.83;100.00;99809.44;2532145;23;20157;-69
2023/07/26 03:42:56;;;;;;;28.33;23.37;;;;;;;25.27;100.00;99871.53;2532409;23;20182;-69
2023/07/26 03:43:57;;;;;;;27.60;22.77;;;;;;;25.24;100.00;99869.78;2519473;23;20151;-69
2023/07/26 03:44:57;;;;;;;29.00;23.20;;;;;;;25.26;100.00;99872.88;2519831;23;20159;-69
2023/07/26 03:45:57;;;;;;;27.30;24.13;;;;;;;25.17;100.00;99875.38;2532537;23;20179;-69
2023/07/26 03:46:58;;;;;;;28.87;24.10;;;;;;;25.06;100.00;99856.53;2531881;23;20147;-69
2023/07/26 03:47:58;;;;;;;26.63;23.67;;;;;;;25.26;100.00;99875.69;2531701;23;20175;-69
2023/07/26 03:48:58;;;;;;;26.80;22.73;;;;;;;25.30;100.00;99876.13;2532375;23;20150;-69
2023/07/26 03:50:02;;;;;;;26.27;23.40;;;;;;;25.35;100.00;99880.91;2532262;23;20150;-69
2023/07/26 03:51:02;;;;;;;29.57;23.10;;;;;;;25.36;100.00;99879.59;2531611;23;20225;-69
2023/07/26 03:52:04;;;;;;;30.13;23.67;;;;;;;25.33;100.00;99868.59;2532409;23;20438;-69
2023/07/26 03:53:05;;;;;;;30.47;22.93;;;;;;;25.36;100.00;99868.25;2532187;23;20198;-69
2023/07/26 03:54:05;;;;;;;24.37;21.77;;;;;;;25.06;100.00;99816.09;2532517;23;20216;-69
2023/07/26 03:55:06;;;;;;;27.37;23.03;;;;;;;25.51;100.00;99873.28;2532480;23;20558;-69
2023/07/26 03:56:06;;;;;;;24.57;20.80;;;;;;;25.51;100.00;99878.97;2519392;23;20163;-69
2023/07/26 03:57:07;;;;;;;27.90;21.77;;;;;;;25.54;100.00;99877.88;2519687;23;20551;-69
2023/07/26 03:58:08;;;;;;;25.10;22.47;;;;;;;25.54;100.00;99872.19;2531988;23;20158;-69
2023/07/26 03:59:09;;;;;;;26.80;21.87;;;;;;;25.57;100.00;99871.84;2519430;23;20190;-69
2023/07/26 04:00:10;;;;;;;27.07;21.10;;;;;;;25.58;100.00;99864.09;2519636;23;20151;-69
2023/07/26 04:01:11;;;;;;;24.53;22.03;;;;;;;25.64;100.00;99862.63;2531577;23;20495;-69
2023/07/26 04:02:11;;;;;;;23.30;20.80;;;;;;;25.67;100.00;99861.53;2529646;23;20182;-69
2023/07/26 04:03:12;;;;;;;22.73;20.00;;;;;;;25.71;100.00;99855.50;2532150;23;20154;-69
2023/07/26 04:04:12;;;;;;;24.63;20.90;;;;;;;25.71;100.00;99866.84;2518819;23;20270;-69
2023/07/26 04:05:12;;;;;;;22.70;20.23;;;;;;;25.74;100.00;99862.91;2519728;23;20159;-69
2023/07/26 04:06:13;;;;;;;24.13;20.53;;;;;;;25.78;100.00;99863.31;2532752;23;20294;-69
2023/07/26 04:07:14;;;;;;;25.27;20.80;;;;;;;25.80;100.00;99860.69;2532942;23;20501;-69
2023/07/26 04:08:14;;;;;;;24.73;20.47;;;;;;;25.82;100.00;99855.22;2519132;23;20158;-69
2023/07/26 04:09:14;;;;;;;25.37;20.23;;;;;;;25.85;100.00;99859.78;2519703;23;20174;-69
2023/07/26 04:10:15;;;;;;;26.00;19.73;;;;;;;25.88;100.00;99861.50;2519808;23;20159;-69
2023/07/26 04:11:15;;;;;;;24.13;20.00;;;;;;;25.90;100.00;99858.88;2519482;23;20167;-69
2023/07/26 04:12:16;;;;;;;22.97;19.40;;;;;;;25.91;100.00;99864.03;2532649;23;20213;-69
2023/07/26 04:13:16;;;;;;;22.93;19.77;;;;;;;25.82;100.00;99844.63;2532607;23;20565;-69
2023/07/26 04:14:17;;;;;;;22.63;20.07;;;;;;;25.96;100.00;99863.13;2532647;23;20154;-69
2023/07/26 04:15:17;;;;;;;22.13;18.57;;;;;;;25.92;100.00;99844.91;2532746;23;20161;-69
2023/07/26 04:16:19;;;;;;;23.37;19.40;;;;;;;26.00;100.00;99855.00;2531993;23;20151;-69
2023/07/26 04:17:20;;;;;;;22.13;18.23;;;;;;;25.96;100.00;99848.94;2532819;23;20161;-69
2023/07/26 04:18:20;;;;;;;21.67;18.43;;;;;;;26.05;100.00;99862.59;2532178;23;20676;-69
2023/07/26 04:19:20;;;;;;;21.57;18.90;;;;;;;26.02;100.00;99860.91;2532890;23;20185;-69
2023/07/26 04:20:21;;;;;;;23.90;17.27;;;;;;;25.97;100.00;99863.88;2532704;23;20154;-69
2023/07/26 04:21:21;;;;;;;20.73;18.60;;;;;;;25.97;100.00;99872.38;2532113;23;20154;-69
2023/07/26 04:22:22;;;;;;;25.37;18.40;;;;;;;25.90;100.00;99868.13;2532603;23;20229;-69
2023/07/26 04:23:22;;;;;;;20.97;17.93;;;;;;;25.85;100.00;99860.53;2532644;23;20263;-69
2023/07/26 04:24:23;;;;;;;20.87;16.57;;;;;;;25.92;100.00;99879.75;2532692;23;20239;-69
2023/07/26 04:25:24;;;;;;;22.00;16.23;;;;;;;25.95;100.00;99880.72;2532912;23;20154;-69
2023/07/26 04:26:24;;;;;;;20.97;17.43;;;;;;;25.85;100.00;99882.50;2532431;23;20154;-69
2023/07/26 04:27:24;;;;;;;22.97;17.73;;;;;;;25.79;100.00;99873.38;2533116;23;20155;-69
2023/07/26 04:28:25;;;;;;;23.67;17.63;;;;;;;25.49;100.00;99839.78;2532002;23;20158;-69
2023/07/26 04:29:25;;;;;;;20.50;16.80;;;;;;;25.31;100.00;99797.47;2532693;23;20225;-69
2023/07/26 04:30:26;;;;;;;24.93;16.97;;;;;;;25.93;100.00;99883.34;2531694;23;20151;-69
2023/07/26 04:31:26;;;;;;;20.20;18.00;;;;;;;25.92;100.00;99881.81;2532145;23;20158;-69
2023/07/26 04:32:27;;;;;;;22.93;18.30;;;;;;;25.91;100.00;99891.63;2532582;23;20154;-69
2023/07/26 04:33:27;;;;;;;26.03;18.20;;;;;;;25.98;100.00;99890.94;2532649;23;20157;-69
2023/07/26 04:34:27;;;;;;;27.37;17.97;;;;;;;26.03;100.00;99896.47;2519390;23;20151;-69
2023/07/26 04:35:28;;;;;;;20.67;17.63;;;;;;;25.83;100.00;99862.41;2520034;23;20179;-69
2023/07/26 04:36:28;;;;;;;21.63;18.20;;;;;;;25.73;100.00;99839.44;2532755;23;20151;-69
2023/07/26 04:37:29;;;;;;;20.73;17.80;;;;;;;26.06;100.00;99889.69;2519740;23;20293;-69